Time;durP1;ratioP1;P1;durP2;ratioP2;P2;SDS_P1;SDS_P2;PMS_P1;PMS_P2;Temp;Humidity;BMP_temperature;BMP_pressure;BME280_temperature;BME280_humidity;BME280_pressure;Samples;Min_cycle;Max_cycle;Signal;HPM_P1;HPM_P2
2023/05/23 00:01:20;;;;;;;4.20;3.63;;;19.60;79.10;;;;;;5040676;28;20440;-60
2023/05/23 00:03:48;;;;;;;4.07;3.17;;;;;;;;;;5039953;28;20435;-60
2023/05/23 00:06:15;;;;;;;6.23;4.17;;;;;;;;;;5037443;28;20560;-63
2023/05/23 00:08:42;;;;;;;4.17;3.17;;;;;;;;;;5037768;28;20468;-63
2023/05/23 00:11:09;;;;;;;4.43;3.37;;;;;;;;;;5037871;28;20531;-61
2023/05/23 00:13:38;;;;;;;4.90;3.33;;;;;;;;;;5038236;28;20452;-63
2023/05/23 00:16:08;;;;;;;7.10;3.73;;;;;;;;;;5038256;28;20460;-61
2023/05/23 00:18:36;;;;;;;4.13;3.30;;;;;;;;;;5037788;28;20478;-60
2023/05/23 00:21:04;;;;;;;7.87;3.77;;;;;;;;;;5040580;28;20536;-59
2023/05/23 00:23:32;;;;;;;5.30;2.83;;;;;;;;;;5042260;28;20519;-61
2023/05/23 00:25:59;;;;;;;4.37;3.37;;;;;;;;;;5040393;28;20452;-62
2023/05/23 00:28:27;;;;;;;4.50;3.30;;;;;;;;;;5049641;28;20452;-61
2023/05/23 00:30:54;;;;;;;3.87;3.47;;;;;;;;;;5042243;28;20463;-61
2023/05/23 00:33:22;;;;;;;4.40;3.33;;;;;;;;;;5037956;28;20499;-61
2023/05/23 00:35:50;;;;;;;7.40;3.10;;;19.40;81.60;;;;;;5037493;28;20502;-62
2023/05/23 00:38:18;;;;;;;4.33;3.93;;;;;;;;;;5038828;28;20631;-60
2023/05/23 00:40:45;;;;;;;5.33;3.23;;;;;;;;;;5037883;28;20451;-60
2023/05/23 00:43:12;;;;;;;5.20;3.40;;;;;;;;;;5043651;28;20472;-58
2023/05/23 00:45:39;;;;;;;4.93;4.43;;;;;;;;;;5049471;28;20535;-61
2023/05/23 00:48:07;;;;;;;5.50;3.77;;;;;;;;;;5039858;28;20825;-60
2023/05/23 00:50:35;;;;;;;4.07;3.57;;;;;;;;;;5043209;28;20446;-60
2023/05/23 00:53:03;;;;;;;5.80;3.93;;;19.30;82.90;;;;;;5042468;28;20964;-60
2023/05/23 00:55:31;;;;;;;5.20;3.97;;;;;;;;;;5041606;28;20559;-61
2023/05/23 00:57:58;;;;;;;4.00;3.00;;;;;;;;;;5040350;28;20506;-60
2023/05/23 01:00:26;;;;;;;3.60;3.23;;;18.90;80.70;;;;;;5043752;28;20490;-61
2023/05/23 01:02:53;;;;;;;3.40;2.80;;;;;;;;;;5040554;28;20468;-60
2023/05/23 01:05:23;;;;;;;4.80;4.30;;;18.90;81.70;;;;;;5037758;28;20832;-60
2023/05/23 01:07:51;;;;;;;7.87;4.00;;;;;;;;;;5037715;28;20563;-60
2023/05/23 01:10:23;;;;;;;5.60;3.87;;;18.70;84.10;;;;;;5037584;28;20527;-61
2023/05/23 01:13:02;;;;;;;7.13;4.03;;;18.70;84.10;;;;;;5038095;28;20864;-60
2023/05/23 01:15:36;;;;;;;4.47;3.50;;;18.50;84.00;;;;;;5039978;28;20504;-60
2023/05/23 01:18:08;;;;;;;4.90;3.67;;;18.60;84.00;;;;;;5042036;28;20488;-60
2023/05/23 01:20:41;;;;;;;6.40;4.10;;;18.70;84.30;;;;;;5039881;28;20543;-60
2023/05/23 01:23:25;;;;;;;7.70;4.13;;;18.70;84.20;;;;;;5037369;28;20511;-61
2023/05/23 01:26:10;;;;;;;8.97;3.37;;;18.60;84.30;;;;;;5037176;28;20558;-61
2023/05/23 01:28:45;;;;;;;5.63;3.27;;;18.70;85.10;;;;;;5036585;28;20456;-62
2023/05/23 01:31:13;;;;;;;5.93;3.30;;;18.40;83.10;;;;;;5038834;28;20432;-61
2023/05/23 01:33:40;;;;;;;4.27;3.47;;;18.50;80.50;;;;;;5036894;28;20444;-62
2023/05/23 01:36:08;;;;;;;4.60;3.53;;;18.80;83.90;;;;;;5037022;28;20928;-61
2023/05/23 01:38:36;;;;;;;4.80;3.40;;;;;;;;;;5043194;28;20472;-61
2023/05/23 01:41:03;;;;;;;8.00;3.80;;;;;;;;;;5040150;28;20476;-60
2023/05/23 01:43:30;;;;;;;4.00;3.17;;;18.80;80.70;;;;;;5037249;28;20480;-62
2023/05/23 01:46:00;;;;;;;4.07;3.13;;;18.70;84.90;;;;;;5036634;28;20491;-61
2023/05/23 01:48:28;;;;;;;5.20;4.00;;;18.70;84.70;;;;;;5036806;28;20523;-61
2023/05/23 01:50:56;;;;;;;5.30;3.70;;;;;;;;;;5036827;28;20551;-59
2023/05/23 01:53:25;;;;;;;4.77;3.07;;;18.70;85.20;;;;;;5036884;28;20566;-60
2023/05/23 01:55:52;;;;;;;5.73;4.00;;;;;;;;;;5037005;28;20543;-62
2023/05/23 01:58:20;;;;;;;5.80;3.13;;;;;;;;;;5036869;28;20513;-62
2023/05/23 02:00:47;;;;;;;4.20;3.80;;;;;;;;;;5036886;28;20482;-62
2023/05/23 02:03:15;;;;;;;7.70;4.00;;;18.80;85.20;;;;;;5036397;28;20518;-60
2023/05/23 02:05:42;;;;;;;8.87;4.60;;;;;;;;;;5036820;28;20554;-62
2023/05/23 02:08:10;;;;;;;4.93;3.33;;;;;;;;;;5040031;28;20532;-60
2023/05/23 02:10:37;;;;;;;4.90;3.77;;;;;;;;;;5040358;28;20447;-59
2023/05/23 02:13:04;;;;;;;7.07;3.90;;;;;;;;;;5041008;28;20519;-61
2023/05/23 02:15:31;;;;;;;5.60;3.70;;;;;;;;;;5042320;28;20547;-61
2023/05/23 02:18:00;;;;;;;5.07;3.60;;;;;;;;;;5038337;28;20452;-61
2023/05/23 02:20:29;;;;;;;7.43;4.50;;;18.50;86.30;;;;;;5036628;28;20562;-61
2023/05/23 02:22:56;;;;;;;5.27;4.33;;;;;;;;;;5036802;28;20483;-60
2023/05/23 02:25:23;;;;;;;5.47;4.17;;;;;;;;;;5036453;28;20444;-61
2023/05/23 02:27:50;;;;;;;5.73;4.40;;;;;;;;;;5037416;28;20881;-60
2023/05/23 02:30:17;;;;;;;6.73;3.60;;;;;;;;;;5041032;28;20893;-61
2023/05/23 02:32:45;;;;;;;5.23;3.23;;;;;;;;;;5040870;28;20567;-60
2023/05/23 02:35:12;;;;;;;4.07;3.33;;;;;;;;;;5040401;28;20459;-61
2023/05/23 02:37:40;;;;;;;6.00;3.37;;;18.40;86.60;;;;;;5040845;28;20448;-62
2023/05/23 02:40:09;;;;;;;8.20;3.90;;;18.80;91.20;;;;;;5040591;28;20554;-63
2023/05/23 02:42:36;;;;;;;8.10;3.80;;;;;;;;;;5040593;28;20992;-61
2023/05/23 02:45:03;;;;;;;5.60;3.67;;;;;;;;;;5040274;28;20448;-61
2023/05/23 02:47:30;;;;;;;5.13;4.10;;;;;;;;;;5040388;28;20535;-61
2023/05/23 02:49:57;;;;;;;5.20;3.17;;;;;;;;;;5040254;28;20535;-60
2023/05/23 02:52:25;;;;;;;8.83;4.47;;;18.40;86.70;;;;;;5040570;28;20563;-58
2023/05/23 02:54:53;;;;;;;6.30;3.90;;;18.50;87.60;;;;;;5040369;28;20456;-60
2023/05/23 02:57:20;;;;;;;5.60;4.00;;;;;;;;;;5039937;28;20448;-59
2023/05/23 02:59:48;;;;;;;4.77;4.03;;;;;;;;;;5040084;28;20530;-59
2023/05/23 03:02:15;;;;;;;5.40;4.13;;;;;;;;;;5040725;28;20543;-61
2023/05/23 03:04:42;;;;;;;6.67;4.37;;;;;;;;;;5041233;28;20543;-61
2023/05/23 03:07:10;;;;;;;6.63;4.10;;;;;;;;;;5041417;28;20458;-62
2023/05/23 03:09:37;;;;;;;4.83;3.03;;;;;;;;;;5039942;28;20502;-62
2023/05/23 03:12:06;;;;;;;3.60;3.30;;;18.50;87.20;;;;;;5039699;28;20475;-61
2023/05/23 03:14:33;;;;;;;9.53;4.40;;;;;;;;;;5039921;28;20531;-62
2023/05/23 03:17:02;;;;;;;5.93;4.03;;;;;;;;;;5040076;28;20478;-61
2023/05/23 03:19:29;;;;;;;5.53;4.30;;;;;;;;;;5050611;28;20491;-61
2023/05/23 03:21:58;;;;;;;6.77;4.50;;;;;;;;;;5053331;28;20483;-57
2023/05/23 03:24:25;;;;;;;5.00;3.80;;;;;;;;;;5049049;28;20441;-61
2023/05/23 03:26:52;;;;;;;4.20;3.30;;;;;;;;;;5041077;28;20458;-62
2023/05/23 03:29:20;;;;;;;4.30;3.50;;;18.50;90.00;;;;;;5045670;28;20575;-61
2023/05/23 03:31:47;;;;;;;7.00;4.50;;;;;;;;;;5039654;28;20483;-61
2023/05/23 03:34:15;;;;;;;8.70;4.70;;;;;;;;;;5044752;28;20478;-59
2023/05/23 03:36:43;;;;;;;6.70;4.27;;;18.70;91.20;;;;;;5058415;28;20447;-60
2023/05/23 03:39:11;;;;;;;5.20;4.37;;;;;;;;;;5052550;28;20455;-62
2023/05/23 03:41:38;;;;;;;7.50;3.37;;;;;;;;;;5042456;28;20464;-61
2023/05/23 03:44:05;;;;;;;4.70;3.93;;;;;;;;;;5038972;28;20436;-60
2023/05/23 03:46:33;;;;;;;9.20;4.83;;;18.70;92.30;;;;;;5040370;28;20586;-60
2023/05/23 03:49:00;;;;;;;7.03;5.17;;;;;;;;;;5048256;28;20478;-62
2023/05/23 03:51:28;;;;;;;5.50;4.00;;;;;;;;;;5041227;28;20594;-61
2023/05/23 03:53:55;;;;;;;6.57;4.07;;;;;;;;;;5039428;28;20488;-60
2023/05/23 03:56:22;;;;;;;7.03;3.97;;;;;;;;;;5038980;28;20525;-60
2023/05/23 03:58:49;;;;;;;6.57;4.13;;;;;;;;;;5039003;28;20448;-62
2023/05/23 04:01:16;;;;;;;5.87;4.13;;;;;;;;;;5041382;28;20444;-60
2023/05/23 04:03:45;;;;;;;12.93;4.67;;;18.30;90.60;;;;;;5051757;28;20456;-60
2023/05/23 04:06:12;;;;;;;6.93;6.17;;;;;;;;;;5044209;28;20475;-61
2023/05/23 04:08:40;;;;;;;9.67;4.67;;;;;;;;;;5038924;28;20540;-63
2023/05/23 04:11:08;;;;;;;4.93;4.37;;;;;;;;;;5047986;28;20547;-63
2023/05/23 04:13:35;;;;;;;8.07;4.10;;;;;;;;;;5039790;28;21028;-61
2023/05/23 04:16:04;;;;;;;10.67;4.57;;;;;;;;;;5040152;28;20472;-61
2023/05/23 04:18:32;;;;;;;7.30;4.80;;;;;;;;;;5047507;28;20452;-62
2023/05/23 04:21:00;;;;;;;6.53;3.93;;;18.40;93.30;;;;;;5043705;28;20781;-61
2023/05/23 04:23:27;;;;;;;5.23;3.93;;;;;;;;;;5038982;28;20533;-62
2023/05/23 04:25:56;;;;;;;6.90;5.17;;;;;;;;;;5038590;28;20444;-63
2023/05/23 04:28:24;;;;;;;4.90;4.10;;;;;;;;;;5040092;28;20765;-60
2023/05/23 04:30:52;;;;;;;5.17;3.73;;;;;;;;;;5047901;28;20468;-60
2023/05/23 04:33:19;;;;;;;9.70;4.50;;;;;;;;;;5037834;28;20514;-62
2023/05/23 04:35:48;;;;;;;7.70;4.20;;;;;;;;;;5038453;28;20456;-61
2023/05/23 04:38:16;;;;;;;5.90;4.30;;;18.60;96.30;;;;;;5038504;28;20444;-62
2023/05/23 04:40:43;;;;;;;6.77;6.13;;;;;;;;;;5041446;28;20512;-61
2023/05/23 04:43:13;;;;;;;4.80;3.90;;;;;;;;;;5038501;28;20499;-63
2023/05/23 04:45:41;;;;;;;5.87;4.17;;;;;;;;;;5044604;28;20456;-62
2023/05/23 04:48:08;;;;;;;6.60;4.60;;;;;;;;;;5056311;28;20491;-60
2023/05/23 04:50:36;;;;;;;7.00;3.80;;;;;;;;;;5056147;28;20478;-61
2023/05/23 04:53:03;;;;;;;7.03;4.30;;;;;;;;;;5057071;28;20487;-61
2023/05/23 04:55:32;;;;;;;7.33;4.50;;;18.20;99.90;;;;;;5051193;28;20495;-62
2023/05/23 04:57:59;;;;;;;5.20;4.67;;;;;;;;;;5039686;28;20444;-60
2023/05/23 05:00:26;;;;;;;8.83;4.70;;;;;;;;;;5038123;28;20506;-61
2023/05/23 05:02:55;;;;;;;5.73;3.90;;;;;;;;;;5041836;28;20456;-61
2023/05/23 05:05:22;;;;;;;8.30;4.73;;;;;;;;;;5048872;28;20448;-57
2023/05/23 05:07:49;;;;;;;9.00;4.87;;;;;;;;;;5040368;28;20504;-61
2023/05/23 05:10:16;;;;;;;4.63;3.63;;;;;;;;;;5037600;28;20537;-63
2023/05/23 05:12:48;;;;;;;28.23;4.93;;;;;;;;;;5037758;28;20480;-60
2023/05/23 05:15:16;;;;;;;11.50;4.50;;;;;;;;;;5037728;28;20432;-62
2023/05/23 05:17:43;;;;;;;8.87;5.47;;;;;;;;;;5037230;28;20558;-61
2023/05/23 05:20:11;;;;;;;9.80;4.37;;;17.80;99.90;;;;;;5037376;28;20531;-62
2023/05/23 05:22:39;;;;;;;6.90;4.40;;;;;;;;;;5037679;28;20472;-60
2023/05/23 05:25:07;;;;;;;9.90;5.30;;;18.00;99.90;;;;;;5037057;28;20444;-61
2023/05/23 05:27:36;;;;;;;6.47;4.83;;;;;;;;;;5036975;28;20429;-60
2023/05/23 05:30:06;;;;;;;6.10;4.57;;;18.30;99.90;;;;;;5049026;28;20444;-61
2023/05/23 05:32:33;;;;;;;4.90;4.40;;;;;;;;;;5040146;28;20483;-60
2023/05/23 05:35:00;;;;;;;6.40;4.67;;;;;;;;;;5041102;28;20912;-60
2023/05/23 05:37:27;;;;;;;7.50;5.00;;;;;;;;;;5055930;28;20483;-61
2023/05/23 05:39:55;;;;;;;10.50;4.83;;;;;;;;;;5046399;28;20496;-62
2023/05/23 05:42:22;;;;;;;7.80;5.23;;;;;;;;;;5048549;28;20424;-60
2023/05/23 05:44:49;;;;;;;6.53;5.73;;;;;;;;;;5050017;28;20471;-61
2023/05/23 05:47:18;;;;;;;8.93;4.30;;;17.90;99.90;;;;;;5043793;28;20464;-54
2023/05/23 05:49:45;;;;;;;5.30;4.80;;;;;;;;;;5053369;28;20499;-57
2023/05/23 05:52:11;;;;;;;16.43;4.47;;;18.00;99.90;;;;;;5056064;28;20464;-57
2023/05/23 05:54:39;;;;;;;7.00;5.33;;;;;;;;;;5054648;28;20825;-54
2023/05/23 05:57:06;;;;;;;9.13;5.10;;;18.10;99.90;;;;;;5043744;28;20456;-55
2023/05/23 05:59:33;;;;;;;5.20;4.07;;;18.10;99.90;;;;;;5043018;28;20523;-57
2023/05/23 06:02:00;;;;;;;10.90;5.20;;;;;;;;;;5041631;28;20471;-54
2023/05/23 06:04:28;;;;;;;7.67;4.90;;;18.10;99.90;;;;;;5040120;28;20527;-57
2023/05/23 06:06:55;;;;;;;5.27;4.10;;;;;;;;;;5041511;28;20425;-58
2023/05/23 06:09:22;;;;;;;6.27;4.70;;;;;;;;;;5041459;28;20471;-55
2023/05/23 06:11:50;;;;;;;11.23;5.00;;;;;;;;;;5053798;28;20424;-55
2023/05/23 06:14:17;;;;;;;5.33;4.83;;;;;;;;;;5054290;28;20968;-54
2023/05/23 06:16:44;;;;;;;6.70;4.70;;;;;;;;;;5053566;28;20459;-56
2023/05/23 06:19:11;;;;;;;7.70;4.37;;;;;;;;;;5054973;28;20463;-56
2023/05/23 06:21:39;;;;;;;9.27;5.60;;;18.30;99.90;;;;;;5048381;28;20515;-57
2023/05/23 06:24:06;;;;;;;9.27;4.57;;;18.40;99.90;;;;;;5049996;28;20456;-61
2023/05/23 06:26:33;;;;;;;8.70;4.77;;;;;;;;;;5048755;28;20503;-60
2023/05/23 06:29:00;;;;;;;6.73;5.40;;;;;;;;;;5056643;28;20467;-61
2023/05/23 06:31:27;;;;;;;7.03;4.80;;;;;;;;;;5049677;28;20499;-60
2023/05/23 06:33:55;;;;;;;6.30;4.80;;;;;;;;;;5054917;28;20534;-61
2023/05/23 06:36:22;;;;;;;5.47;4.40;;;;;;;;;;5055778;28;20496;-60
2023/05/23 06:38:50;;;;;;;7.00;4.97;;;18.90;99.90;;;;;;5055437;28;20460;-59
2023/05/23 06:41:17;;;;;;;6.83;5.80;;;;;;;;;;5056290;28;20444;-59
2023/05/23 06:43:44;;;;;;;8.07;3.80;;;;;;;;;;5055433;28;20455;-60
2023/05/23 06:46:11;;;;;;;5.00;4.50;;;;;;;;;;5052888;28;20454;-58
2023/05/23 06:48:38;;;;;;;6.60;4.90;;;;;;;;;;5055269;28;20523;-61
2023/05/23 06:51:05;;;;;;;15.73;4.83;;;19.80;99.90;;;;;;5055429;28;20474;-58
2023/05/23 06:53:33;;;;;;;11.10;5.10;;;;;;;;;;5055233;28;20480;-62
2023/05/23 06:56:02;;;;;;;8.73;5.50;;;;;;;;;;5055391;28;20417;-61
2023/05/23 06:58:30;;;;;;;10.80;5.37;;;20.00;98.90;;;;;;5055089;28;20439;-59
2023/05/23 07:00:57;;;;;;;6.43;5.53;;;;;;;;;;5053085;28;20475;-62
2023/05/23 07:03:24;;;;;;;4.77;4.30;;;20.50;99.90;;;;;;5055255;28;20464;-61
2023/05/23 07:05:57;;;;;;;8.13;6.00;;;;;;;;;;5054811;28;20468;-60
2023/05/23 07:08:24;;;;;;;7.10;4.90;;;;;;;;;;5054395;28;20439;-58
2023/05/23 07:10:51;;;;;;;7.40;6.07;;;;;;;;;;5054742;28;20464;-62
2023/05/23 07:13:19;;;;;;;12.30;5.50;;;20.70;98.10;;;;;;5054873;28;20487;-60
2023/05/23 07:15:47;;;;;;;5.97;4.83;;;;;;;;;;5056026;28;20487;-60
2023/05/23 07:18:14;;;;;;;5.53;4.97;;;;;;;;;;5058920;28;20451;-61
2023/05/23 07:20:41;;;;;;;8.93;5.13;;;;;;;;;;5058864;28;20464;-62
2023/05/23 07:23:08;;;;;;;6.20;4.67;;;;;;;;;;5057651;28;20479;-60
2023/05/23 07:25:35;;;;;;;6.37;5.70;;;;;;;;;;5055258;28;20463;-62
2023/05/23 07:28:02;;;;;;;10.60;5.00;;;;;;;;;;5058432;28;20498;-63
2023/05/23 07:30:31;;;;;;;6.40;4.50;;;;;;;;;;5056932;28;20467;-61
2023/05/23 07:32:58;;;;;;;8.60;4.87;;;;;;;;;;5057513;28;20555;-59
2023/05/23 07:35:27;;;;;;;6.03;3.97;;;21.70;94.40;;;;;;5058305;28;20425;-58
2023/05/23 07:37:54;;;;;;;8.10;4.70;;;;;;;;;;5058549;28;20451;-60
2023/05/23 07:40:22;;;;;;;6.70;5.50;;;;;;;;;;5058168;28;20443;-60
2023/05/23 07:42:49;;;;;;;12.00;5.70;;;;;;;;;;5058156;28;20940;-58
2023/05/23 07:45:16;;;;;;;6.13;5.20;;;;;;;;;;5056600;28;20475;-61
2023/05/23 07:47:44;;;;;;;7.27;4.70;;;;;;;;;;5055066;28;20440;-58
2023/05/23 07:50:12;;;;;;;5.80;4.83;;;;;;;;;;5058006;28;20464;-60
2023/05/23 07:52:39;;;;;;;15.43;5.30;;;;;;;;;;5057567;28;20424;-61
2023/05/23 07:55:07;;;;;;;9.80;3.90;;;22.50;99.90;;;;;;5058492;28;20468;-60
2023/05/23 07:57:34;;;;;;;6.10;4.17;;;;;;;;;;5058225;28;20478;-58
2023/05/23 08:00:01;;;;;;;6.20;4.70;;;;;;;;;;5055937;28;20436;-60
2023/05/23 08:02:28;;;;;;;9.80;4.70;;;;;;;;;;5056652;28;20472;-60
2023/05/23 08:04:58;;;;;;;9.80;4.20;;;22.70;91.50;;;;;;5058709;28;20440;-60
2023/05/23 08:07:25;;;;;;;9.13;4.43;;;;;;;;;;5057926;28;20503;-63
2023/05/23 08:09:53;;;;;;;8.00;4.40;;;;;;;;;;5058361;28;20432;-54
2023/05/23 08:12:20;;;;;;;5.93;3.97;;;;;;;;;;5058607;28;20440;-58
2023/05/23 08:14:47;;;;;;;5.00;3.80;;;;;;;;;;5053646;28;20465;-58
2023/05/23 08:17:14;;;;;;;7.10;4.40;;;;;;;;;;5057190;28;20448;-56
2023/05/23 08:19:42;;;;;;;5.30;3.83;;;;;;;;;;5056304;28;20456;-55
2023/05/23 08:22:10;;;;;;;6.00;4.70;;;22.00;89.90;;;;;;5058980;28;20440;-58
2023/05/23 08:24:38;;;;;;;5.00;4.20;;;;;;;;;;5054596;28;20440;-57
2023/05/23 08:27:06;;;;;;;7.33;4.80;;;22.60;91.20;;;;;;5056031;28;20549;-60
2023/05/23 08:29:34;;;;;;;9.90;4.37;;;;;;;;;;5057883;28;20516;-61
2023/05/23 08:32:01;;;;;;;11.17;4.57;;;;;;;;;;5054722;28;20432;-59
2023/05/23 08:34:28;;;;;;;5.37;4.67;;;;;;;;;;5057474;28;20520;-59
2023/05/23 08:36:55;;;;;;;4.77;4.20;;;;;;;;;;5057745;28;20444;-58
2023/05/23 08:39:23;;;;;;;4.50;4.07;;;27.80;76.70;;;;;;5055675;28;20445;-61
2023/05/23 08:41:50;;;;;;;4.83;4.43;;;28.80;99.90;;;;;;5055063;28;20472;-55
2023/05/23 08:44:18;;;;;;;4.67;4.17;;;;;;;;;;5057558;28;20436;-56
2023/05/23 08:46:46;;;;;;;4.60;4.20;;;28.50;70.20;;;;;;5056235;28;20456;-62
2023/05/23 08:49:17;;;;;;;6.07;3.87;;;28.10;69.80;;;;;;5056703;28;20429;-61
2023/05/23 08:51:45;;;;;;;6.10;4.50;;;;;;;;;;5056751;28;20441;-58
2023/05/23 08:54:13;;;;;;;6.23;5.37;;;;;;;;;;5056564;28;20495;-61
2023/05/23 08:56:43;;;;;;;6.57;5.20;;;28.10;99.90;;;;;;5057082;28;20447;-61
2023/05/23 08:59:10;;;;;;;5.00;4.03;;;;;;;;;;5056917;28;20483;-61
2023/05/23 09:01:40;;;;;;;5.60;4.23;;;29.30;99.30;;;;;;5057240;28;20460;-62
2023/05/23 09:04:07;;;;;;;5.07;3.90;;;;;;;;;;5057147;28;20468;-58
2023/05/23 09:06:35;;;;;;;4.53;4.03;;;29.30;70.80;;;;;;5057001;28;20444;-61
2023/05/23 09:09:02;;;;;;;4.87;3.90;;;;;;;;;;5056854;28;20464;-59
2023/05/23 09:11:33;;;;;;;9.40;4.53;;;;;;;;;;5056099;28;20464;-62
2023/05/23 09:14:02;;;;;;;5.50;4.63;;;30.10;96.00;;;;;;5056592;28;20460;-59
2023/05/23 09:16:33;;;;;;;5.03;3.93;;;30.10;71.00;;;;;;5054293;28;20487;-61
2023/05/23 09:19:09;;;;;;;5.23;4.70;;;30.50;95.70;;;;;;5056663;28;20491;-61
2023/05/23 09:21:36;;;;;;;5.80;4.03;;;30.00;99.90;;;;;;5057153;28;20464;-58
2023/05/23 09:24:04;;;;;;;5.47;4.93;;;;;;;;;;5057207;28;20432;-61
2023/05/23 09:26:31;;;;;;;7.40;5.50;;;;;;;;;;5054338;28;20456;-62
2023/05/23 09:28:59;;;;;;;11.43;5.03;;;;;;;;;;5055655;28;20440;-55
2023/05/23 09:31:28;;;;;;;6.23;4.40;;;27.60;80.00;;;;;;5057036;28;20479;-59
2023/05/23 09:33:55;;;;;;;6.33;5.00;;;;;;;;;;5057253;28;20425;-59
2023/05/23 09:36:22;;;;;;;6.13;4.60;;;;;;;;;;5056295;28;20440;-60
2023/05/23 09:38:51;;;;;;;5.70;4.60;;;;;;;;;;5053903;28;20432;-61
2023/05/23 09:41:20;;;;;;;4.90;4.40;;;25.20;90.00;;;;;;5057033;28;20483;-62
2023/05/23 09:43:51;;;;;;;5.63;4.63;;;24.90;84.90;;;;;;5055814;28;20468;-60
2023/05/23 09:46:20;;;;;;;7.90;4.47;;;24.50;91.10;;;;;;5055819;28;20440;-61
2023/05/23 09:48:50;;;;;;;5.37;4.97;;;24.90;99.90;;;;;;5056143;28;20475;-62
2023/05/23 09:51:19;;;;;;;6.97;4.63;;;24.50;92.80;;;;;;5054188;28;20463;-61
2023/05/23 09:53:47;;;;;;;5.10;4.60;;;;;;;;;;5056984;28;20450;-63
2023/05/23 09:56:14;;;;;;;11.03;5.13;;;;;;;;;;5056151;28;20424;-64
2023/05/23 09:58:45;;;;;;;8.73;4.90;;;24.10;93.80;;;;;;5045964;28;20538;-62
2023/05/23 10:01:13;;;;;;;4.80;4.30;;;24.20;99.90;;;;;;5055867;28;20449;-60
2023/05/23 10:03:46;;;;;;;6.73;3.80;;;24.10;94.30;;;;;;5055742;28;20437;-61
2023/05/23 10:06:22;;;;;;;8.57;5.37;;;23.70;94.90;;;;;;5055928;28;20475;-58
2023/05/23 10:08:54;;;;;;;5.93;4.90;;;23.40;95.40;;;;;;5055938;28;20420;-57
2023/05/23 10:12:03;;;;;;;6.07;4.70;;;23.60;95.80;;;;;;5055696;28;20464;-62
2023/05/23 10:14:35;;;;;;;7.40;5.60;;;24.00;95.50;;;;;;5056251;28;20468;-61
2023/05/23 10:17:09;;;;;;;5.77;5.13;;;24.10;95.50;;;;;;5055205;28;20471;-60
2023/05/23 10:19:43;;;;;;;5.63;5.00;;;23.70;99.90;;;;;;5055703;28;20478;-59
2023/05/23 10:22:13;;;;;;;6.60;5.90;;;24.20;96.90;;;;;;5056618;28;20463;-62
2023/05/23 10:24:41;;;;;;;12.73;7.47;;;;;;;;;;5056711;28;20433;-57
2023/05/23 10:27:08;;;;;;;7.23;6.20;;;;;;;;;;5055874;28;20432;-60
2023/05/23 10:29:35;;;;;;;7.60;6.83;;;;;;;;;;5055976;28;20441;-59
2023/05/23 10:32:03;;;;;;;11.60;7.10;;;;;;;;;;5055576;28;20455;-60
2023/05/23 10:34:35;;;;;;;15.00;7.90;;;23.90;99.90;;;;;;5055621;28;20523;-58
2023/05/23 10:37:04;;;;;;;8.90;7.07;;;23.50;99.90;;;;;;5056443;28;20433;-61
2023/05/23 10:39:46;;;;;;;8.10;7.30;;;23.30;99.90;;;;;;5055523;28;20483;-60
2023/05/23 10:42:17;;;;;;;7.60;6.80;;;23.00;99.90;;;;;;5055896;28;20424;-60
2023/05/23 10:44:44;;;;;;;10.17;8.40;;;;;;;;;;5054413;28;20464;-61
2023/05/23 10:47:11;;;;;;;9.13;8.07;;;;;;;;;;5053982;28;20427;-61
2023/05/23 10:49:40;;;;;;;9.57;8.37;;;23.00;99.90;;;;;;5056958;28;20424;-61
2023/05/23 10:52:09;;;;;;;9.63;8.63;;;23.20;99.90;;;;;;5060215;28;20451;-60
2023/05/23 10:54:41;;;;;;;9.07;7.17;;;23.00;99.90;;;;;;5059757;28;20474;-60
2023/05/23 10:57:11;;;;;;;11.63;8.87;;;22.90;99.90;;;;;;5059740;28;20471;-60
2023/05/23 10:59:39;;;;;;;14.43;7.90;;;23.10;99.90;;;;;;5059600;28;20459;-60
2023/05/23 11:02:13;;;;;;;11.00;7.90;;;23.00;99.90;;;;;;5059057;28;20531;-62
2023/05/23 11:04:40;;;;;;;13.23;8.80;;;;;;;;;;5059168;28;20412;-59
2023/05/23 11:07:30;;;;;;;17.00;8.83;;;22.50;99.90;;;;;;5059402;28;20520;-59
2023/05/23 11:10:08;;;;;;;9.97;8.80;;;22.30;99.90;;;;;;5058898;28;20420;-60
2023/05/23 11:12:40;;;;;;;14.10;10.80;;;22.30;99.90;;;;;;5058074;28;20424;-61
2023/05/23 11:15:22;;;;;;;11.30;8.50;;;22.10;99.90;;;;;;5057610;28;20448;-60
2023/05/23 11:17:52;;;;;;;11.40;10.10;;;22.10;99.90;;;;;;5058497;28;20463;-61
2023/05/23 11:20:22;;;;;;;11.90;9.40;;;;;;;;;;5059899;28;20452;-59
2023/05/23 11:23:01;;;;;;;11.10;8.77;;;22.20;99.90;;;;;;5059104;28;20488;-61
2023/05/23 11:25:45;;;;;;;10.57;8.10;;;22.40;99.90;;;;;;5059028;28;20472;-60
2023/05/23 11:28:12;;;;;;;13.10;9.30;;;;;;;;;;5059360;28;20444;-60
2023/05/23 11:30:40;;;;;;;14.50;10.07;;;;;;;;;;5058433;28;20468;-55
2023/05/23 11:33:10;;;;;;;15.13;9.83;;;21.70;99.90;;;;;;5059108;28;20439;-58
2023/05/23 11:35:37;;;;;;;13.00;10.03;;;;;;;;;;5059113;28;20495;-59
2023/05/23 11:38:05;;;;;;;11.90;9.90;;;21.50;99.90;;;;;;5059539;28;20420;-58
2023/05/23 11:40:34;;;;;;;14.00;9.83;;;21.10;99.90;;;;;;5058413;28;20444;-61
2023/05/23 11:43:04;;;;;;;14.00;10.90;;;21.10;99.90;;;;;;5059170;28;20466;-58
2023/05/23 11:45:32;;;;;;;18.17;11.20;;;20.90;99.90;;;;;;5059205;28;20456;-57
2023/05/23 11:47:59;;;;;;;16.57;12.83;;;;;;;;;;5057769;28;20502;-61
2023/05/23 11:50:28;;;;;;;12.97;11.17;;;;;;;;;;5058847;28;20471;-61
2023/05/23 11:52:56;;;;;;;14.13;9.20;;;;;;;;;;5058057;28;20506;-61
2023/05/23 11:55:23;;;;;;;15.57;9.93;;;20.20;99.90;;;;;;5059140;28;20968;-59
2023/05/23 11:57:51;;;;;;;14.20;10.20;;;;;;;;;;5057899;28;20461;-60
2023/05/23 12:00:20;;;;;;;15.00;11.17;;;20.00;99.90;;;;;;5057774;28;20477;-60
2023/05/23 12:02:48;;;;;;;20.70;12.07;;;19.80;99.90;;;;;;5058851;28;20451;-60
2023/05/23 12:05:15;;;;;;;15.27;10.50;;;;;;;;;;5058439;28;20444;-59
2023/05/23 12:07:45;;;;;;;14.53;11.23;;;;;;;;;;5058626;28;20468;-56
2023/05/23 12:10:13;;;;;;;17.17;11.47;;;;;;;;;;5058931;28;20536;-61
2023/05/23 12:12:41;;;;;;;12.97;10.30;;;19.90;99.90;;;;;;5057291;28;20440;-60
2023/05/23 12:15:10;;;;;;;13.80;10.30;;;20.00;99.90;;;;;;5058253;28;20480;-59
2023/05/23 12:17:39;;;;;;;19.63;11.40;;;19.80;99.90;;;;;;5058308;28;20508;-57
2023/05/23 12:20:07;;;;;;;16.87;11.70;;;20.20;99.90;;;;;;5057925;28;20818;-61
2023/05/23 12:22:35;;;;;;;19.83;11.13;;;;;;;;;;5058069;28;20412;-61
2023/05/23 12:25:03;;;;;;;14.40;10.43;;;20.60;99.90;;;;;;5058214;28;20440;-60
2023/05/23 12:27:35;;;;;;;14.40;10.80;;;20.70;99.90;;;;;;5057323;28;20465;-61
2023/05/23 12:30:09;;;;;;;15.83;10.77;;;20.90;99.90;;;;;;5058078;28;20484;-60
2023/05/23 12:32:41;;;;;;;19.10;10.90;;;20.90;99.90;;;;;;5057758;28;20488;-59
2023/05/23 12:35:11;;;;;;;15.60;12.13;;;20.70;99.90;;;;;;5057511;28;20475;-60
2023/05/23 12:37:39;;;;;;;14.57;11.00;;;20.60;99.90;;;;;;5058049;28;20610;-58
2023/05/23 12:40:11;;;;;;;20.40;11.93;;;20.60;99.90;;;;;;5055812;28;20464;-59
2023/05/23 12:42:46;;;;;;;16.60;10.93;;;20.60;99.90;;;;;;5057791;28;20424;-57
2023/05/23 12:45:14;;;;;;;18.03;12.20;;;20.80;99.90;;;;;;5057796;28;20424;-60
2023/05/23 12:47:50;;;;;;;17.33;11.13;;;20.40;99.90;;;;;;5057354;28;20440;-62
2023/05/23 12:50:18;;;;;;;15.70;11.30;;;;;;;;;;5057391;28;20463;-61
2023/05/23 12:52:45;;;;;;;15.40;10.70;;;20.40;99.90;;;;;;5058395;28;20440;-60
2023/05/23 12:55:13;;;;;;;10.73;9.03;;;20.80;99.90;;;;;;5057632;28;20487;-61
2023/05/23 12:57:40;;;;;;;17.93;11.10;;;20.00;99.90;;;;;;5057544;28;20428;-60
2023/05/23 13:00:08;;;;;;;13.30;10.30;;;;;;;;;;5057995;28;20471;-60
2023/05/23 13:02:35;;;;;;;13.70;9.70;;;20.10;99.90;;;;;;5057785;28;20421;-54
2023/05/23 13:05:03;;;;;;;11.93;8.90;;;20.00;99.90;;;;;;5056449;28;20455;-60
2023/05/23 13:07:30;;;;;;;13.27;9.43;;;;;;;;;;5057419;28;20432;-60
2023/05/23 13:09:57;;;;;;;10.37;7.67;;;20.00;99.90;;;;;;5057091;28;20448;-58
2023/05/23 13:12:26;;;;;;;11.67;9.00;;;20.40;99.90;;;;;;5057444;28;20428;-60
2023/05/23 13:14:53;;;;;;;12.47;9.83;;;19.90;99.90;;;;;;5057248;28;20440;-60
2023/05/23 13:17:20;;;;;;;12.77;8.83;;;19.70;99.90;;;;;;5057123;28;20477;-61
2023/05/23 13:19:47;;;;;;;12.97;9.27;;;;;;;;;;5057516;28;20524;-61
2023/05/23 13:22:15;;;;;;;12.03;8.13;;;20.00;99.90;;;;;;5056901;28;20475;-62
2023/05/23 13:24:42;;;;;;;14.50;9.97;;;19.80;99.90;;;;;;5056825;28;20439;-60
2023/05/23 13:27:10;;;;;;;13.40;9.40;;;;;;;;;;5057057;28;20444;-57
2023/05/23 13:29:37;;;;;;;15.70;9.70;;;;;;;;;;5057208;28;20460;-60
2023/05/23 13:32:04;;;;;;;16.07;11.40;;;;;;;;;;5057851;28;20424;-59
2023/05/23 13:34:33;;;;;;;15.67;9.70;;;;;;;;;;5057258;28;20447;-59
2023/05/23 13:37:01;;;;;;;14.47;11.03;;;;;;;;;;5056786;28;20460;-59
2023/05/23 13:39:29;;;;;;;16.77;10.97;;;19.20;99.90;;;;;;5056698;28;20503;-60
2023/05/23 13:41:56;;;;;;;15.03;11.00;;;;;;;;;;5056161;28;20455;-61
2023/05/23 13:44:23;;;;;;;16.13;11.17;;;;;;;;;;5056733;28;20443;-59
2023/05/23 13:46:50;;;;;;;17.80;12.47;;;;;;;;;;5057212;28;20426;-61
2023/05/23 13:49:17;;;;;;;15.00;10.40;;;;;;;;;;5057141;28;20475;-62
2023/05/23 13:51:45;;;;;;;18.33;10.90;;;;;;;;;;5056565;28;20460;-59
2023/05/23 13:54:12;;;;;;;22.97;10.80;;;;;;;;;;5056325;28;20448;-59
2023/05/23 13:56:40;;;;;;;21.50;11.17;;;18.70;99.90;;;;;;5056384;28;20586;-59